createdAt,value
2019-04-25T00:01:14.562Z,64.70
2019-04-25T00:03:46.630Z,63.60
2019-04-25T00:06:21.526Z,62.80
2019-04-25T00:08:56.361Z,62.60
2019-04-25T00:11:28.126Z,62.10
2019-04-25T00:13:59.467Z,61.80
2019-04-25T00:16:33.251Z,61.60
2019-04-25T00:19:04.793Z,61.40
2019-04-25T00:21:37.386Z,60.90
2019-04-25T00:24:12.107Z,60.90
2019-04-25T00:26:45.214Z,60.50
2019-04-25T00:29:17.556Z,59.30
2019-04-25T00:31:51.357Z,59.10
2019-04-25T00:34:22.925Z,59.40
2019-04-25T00:36:54.915Z,58.90
2019-04-25T00:39:26.609Z,58.60
2019-04-25T00:41:58.149Z,58.70
2019-04-25T00:44:31.572Z,58.20
2019-04-25T00:47:02.859Z,58.50
2019-04-25T00:49:34.511Z,58.70
2019-04-25T00:52:05.858Z,58.40
2019-04-25T00:54:37.167Z,58.20
2019-04-25T00:57:08.631Z,59.00
2019-04-25T00:59:45.357Z,58.20
2019-04-25T01:02:18.120Z,58.00
2019-04-25T01:04:49.405Z,58.00
2019-04-25T01:07:22.411Z,57.60
2019-04-25T01:09:54.567Z,57.40
2019-04-25T01:12:25.904Z,56.40
2019-04-25T01:14:57.410Z,56.00
2019-04-25T01:17:28.747Z,55.60
2019-04-25T01:20:01.082Z,55.50
2019-04-25T01:22:32.348Z,55.80
2019-04-25T01:25:03.923Z,55.50
2019-04-25T01:27:35.365Z,55.20
2019-04-25T01:30:08.806Z,54.70
2019-04-25T01:32:40.387Z,54.50
2019-04-25T01:35:11.804Z,54.80
2019-04-25T01:37:44.191Z,54.90
2019-04-25T01:40:15.426Z,54.40
2019-04-25T01:42:48.009Z,54.00
2019-04-25T01:45:20.563Z,54.00
2019-04-25T01:47:52.581Z,54.00
2019-04-25T01:50:24.820Z,53.80
2019-04-25T01:52:56.703Z,53.90
2019-04-25T01:55:28.231Z,53.50
2019-04-25T01:57:59.651Z,53.20
2019-04-25T02:00:33.271Z,53.00
2019-04-25T02:03:05.052Z,52.90
2019-04-25T02:05:36.496Z,52.70
2019-04-25T02:08:07.930Z,52.40
2019-04-25T02:10:39.344Z,52.10
2019-04-25T02:13:12.070Z,51.80
2019-04-25T02:15:43.483Z,51.70
2019-04-25T02:18:14.792Z,51.60
2019-04-25T02:20:46.261Z,50.50
2019-04-25T02:23:17.608Z,50.50
2019-04-25T02:25:49.140Z,50.20
2019-04-25T02:28:20.580Z,49.70
2019-04-25T02:30:54.730Z,49.30
2019-04-25T02:33:25.335Z,48.90
2019-04-25T02:35:59.377Z,49.00
2019-04-25T02:38:30.752Z,48.50
2019-04-25T02:41:06.315Z,48.30
2019-04-25T02:43:35.277Z,48.00
2019-04-25T02:46:09.235Z,48.00
2019-04-25T02:48:43.990Z,47.40
2019-04-25T02:51:16.261Z,47.10
2019-04-25T02:53:48.706Z,47.00
2019-04-25T02:56:31.334Z,46.30
2019-04-25T02:58:54.301Z,46.20
2019-04-25T03:01:26.874Z,44.10
2019-04-25T03:03:59.366Z,45.20
2019-04-25T03:06:31.300Z,45.30
2019-04-25T03:09:04.015Z,44.80
2019-04-25T03:11:35.853Z,43.90
2019-04-25T03:14:10.010Z,44.00
2019-04-25T03:16:40.135Z,43.50
2019-04-25T03:19:11.379Z,43.10
2019-04-25T03:21:45.170Z,43.50
2019-04-25T03:24:18.189Z,43.20
2019-04-25T03:26:49.689Z,42.00
2019-04-25T03:29:22.334Z,41.50
2019-04-25T03:32:16.456Z,41.70
2019-04-25T03:34:45.695Z,41.10
2019-04-25T03:37:17.174Z,40.70
2019-04-25T03:39:48.599Z,40.70
2019-04-25T03:42:19.950Z,40.90
2019-04-25T03:44:51.096Z,40.80
2019-04-25T03:47:23.588Z,40.30
2019-04-25T03:49:55.441Z,40.60
2019-04-25T03:52:27.127Z,40.20
2019-04-25T03:54:58.490Z,40.20
2019-04-25T03:57:29.838Z,40.40
2019-04-25T04:00:01.095Z,39.80
2019-04-25T04:02:34.389Z,39.10
2019-04-25T04:05:07.300Z,38.70
2019-04-25T04:07:39.266Z,38.80
2019-04-25T04:10:10.822Z,38.10
2019-04-25T04:12:42.256Z,38.70
2019-04-25T04:15:14.876Z,38.20
2019-04-25T04:17:47.641Z,38.20
2019-04-25T04:20:18.933Z,37.10
2019-04-25T04:22:51.478Z,37.00
2019-04-25T04:25:23.646Z,37.00
2019-04-25T04:27:55.067Z,37.20
2019-04-25T04:30:26.629Z,37.40
2019-04-25T04:32:58.114Z,36.30
2019-04-25T04:35:29.688Z,35.30
2019-04-25T04:38:01.129Z,35.40
2019-04-25T04:40:34.401Z,35.10
2019-04-25T04:43:05.542Z,33.80
2019-04-25T04:45:36.862Z,34.40
2019-04-25T04:48:08.748Z,33.70
2019-04-25T04:50:40.260Z,34.00
2019-04-25T04:53:11.599Z,34.10
2019-04-25T04:55:43.266Z,35.10
2019-04-25T04:58:16.058Z,35.20
2019-04-25T05:00:47.653Z,35.00
2019-04-25T05:03:19.954Z,34.80
2019-04-25T05:05:51.116Z,33.90
2019-04-25T05:08:24.946Z,33.50
2019-04-25T05:10:57.424Z,33.80
2019-04-25T05:13:28.889Z,33.70
2019-04-25T05:16:00.452Z,33.30
2019-04-25T05:18:37.045Z,32.90
2019-04-25T05:21:04.628Z,32.80
2019-04-25T05:23:36.092Z,33.70
2019-04-25T05:26:07.496Z,33.00
2019-04-25T05:28:38.905Z,32.60
2019-04-25T05:31:11.233Z,30.80
2019-04-25T05:33:43.616Z,30.70
2019-04-25T05:36:16.925Z,31.00
2019-04-25T05:38:47.984Z,31.00
2019-04-25T05:41:20.382Z,31.20
2019-04-25T05:43:53.533Z,31.40
2019-04-25T05:46:25.431Z,31.50
2019-04-25T05:48:57.515Z,31.10
2019-04-25T05:51:28.925Z,30.50
2019-04-25T05:54:00.230Z,30.10
2019-04-25T05:56:31.513Z,30.20
2019-04-25T05:59:03.366Z,30.70
2019-04-25T06:01:35.807Z,30.80
2019-04-25T06:04:07.633Z,30.20
2019-04-25T06:06:38.993Z,30.60
2019-04-25T06:09:12.103Z,31.30
2019-04-25T06:11:44.722Z,30.30
2019-04-25T06:14:18.269Z,31.20
2019-04-25T06:16:49.804Z,31.30
2019-04-25T06:19:24.321Z,31.00
2019-04-25T06:21:55.478Z,30.90
2019-04-25T06:24:28.004Z,30.90
2019-04-25T06:27:00.641Z,30.70
2019-04-25T06:29:33.602Z,30.70
2019-04-25T06:32:08.366Z,31.20
2019-04-25T06:34:38.132Z,31.60
2019-04-25T06:37:09.602Z,31.60
2019-04-25T06:39:41.130Z,31.20
2019-04-25T06:42:13.845Z,31.30
2019-04-25T06:44:46.847Z,31.00
2019-04-25T06:47:19.283Z,31.10
2019-04-25T06:49:50.752Z,32.20
2019-04-25T06:52:24.636Z,31.30
2019-04-25T06:54:54.987Z,31.80
2019-04-25T06:57:26.979Z,32.50
2019-04-25T06:59:58.995Z,32.00
2019-04-25T07:02:30.948Z,32.20
2019-04-25T07:05:03.871Z,32.20
2019-04-25T07:07:35.307Z,30.70
2019-04-25T07:10:08.710Z,31.30
2019-04-25T07:12:40.174Z,31.00
2019-04-25T07:15:13.808Z,31.70
2019-04-25T07:17:45.772Z,31.40
2019-04-25T07:20:17.961Z,31.40
2019-04-25T07:22:49.701Z,31.00
2019-04-25T07:25:22.187Z,30.70
2019-04-25T07:27:54.802Z,30.20
2019-04-25T07:30:45.458Z,30.50
2019-04-25T07:33:01.715Z,31.30
2019-04-25T07:35:34.578Z,31.60
2019-04-25T07:38:06.044Z,30.70
2019-04-25T07:40:37.482Z,30.40
2019-04-25T07:43:08.936Z,30.00
2019-04-25T07:45:40.417Z,30.20
2019-04-25T07:48:13.851Z,31.00
2019-04-25T07:50:45.446Z,30.80
2019-04-25T07:53:16.993Z,30.40
2019-04-25T07:55:48.268Z,30.40
2019-04-25T07:58:20.665Z,30.40
2019-04-25T08:00:53.866Z,31.20
2019-04-25T08:03:24.958Z,30.60
2019-04-25T08:05:56.700Z,30.80
2019-04-25T08:08:28.210Z,31.10
2019-04-25T08:11:03.859Z,30.80
2019-04-25T08:13:37.372Z,30.80
2019-04-25T08:16:10.093Z,30.80
2019-04-25T08:18:43.381Z,30.10
2019-04-25T08:21:15.397Z,31.00
2019-04-25T08:23:47.233Z,31.40
2019-04-25T08:26:18.791Z,31.50
2019-04-25T08:28:55.146Z,32.00
2019-04-25T08:31:23.452Z,31.80
2019-04-25T08:33:56.227Z,31.40
2019-04-25T08:36:31.179Z,31.10
2019-04-25T08:39:03.343Z,30.40
2019-04-25T08:41:35.845Z,30.70
2019-04-25T08:44:07.960Z,30.70
2019-04-25T08:46:39.540Z,30.30
2019-04-25T08:49:14.005Z,31.00
2019-04-25T08:51:46.735Z,31.00
2019-04-25T08:54:19.315Z,31.00
2019-04-25T08:56:50.910Z,30.80
2019-04-25T08:59:36.046Z,30.00
2019-04-25T09:02:01.369Z,30.50
2019-04-25T09:04:35.675Z,30.40
2019-04-25T09:07:06.768Z,29.90
2019-04-25T09:09:38.975Z,30.00
2019-04-25T09:12:10.320Z,30.30
2019-04-25T09:14:41.560Z,29.40
2019-04-25T09:17:14.276Z,29.80
2019-04-25T09:19:45.792Z,29.70
2019-04-25T09:22:17.019Z,29.60
2019-04-25T09:24:48.626Z,30.10
2019-04-25T09:27:20.040Z,30.40
2019-04-25T09:29:51.341Z,30.60
2019-04-25T09:32:23.870Z,30.90
2019-04-25T09:34:55.531Z,29.60
2019-04-25T09:37:26.986Z,29.90
2019-04-25T09:39:59.574Z,29.90
2019-04-25T09:42:31.102Z,28.90
2019-04-25T09:45:03.841Z,29.40
2019-04-25T09:47:35.752Z,29.80
2019-04-25T09:50:09.009Z,30.20
2019-04-25T09:52:40.521Z,29.70
2019-04-25T09:55:13.704Z,29.60
2019-04-25T09:57:46.447Z,29.60
2019-04-25T10:00:21.027Z,29.50
2019-04-25T10:02:55.127Z,29.10
2019-04-25T10:05:25.269Z,28.90
2019-04-25T10:07:56.698Z,29.60
2019-04-25T10:10:29.593Z,29.60
2019-04-25T10:13:00.849Z,29.70
2019-04-25T10:15:34.342Z,29.40
2019-04-25T10:18:05.742Z,29.40
2019-04-25T10:20:37.647Z,28.90
2019-04-25T10:23:09.541Z,28.90
2019-04-25T10:25:41.915Z,28.70
2019-04-25T10:28:13.879Z,29.30
2019-04-25T10:30:45.320Z,29.60
2019-04-25T10:33:18.529Z,29.20
2019-04-25T10:35:54.762Z,29.10
2019-04-25T10:38:24.106Z,29.40
2019-04-25T10:40:55.436Z,29.30
2019-04-25T10:43:26.830Z,29.80
2019-04-25T10:45:58.267Z,29.90
2019-04-25T10:48:29.716Z,30.60
2019-04-25T10:51:04.008Z,32.20
2019-04-25T10:53:34.775Z,33.60
2019-04-25T10:56:06.150Z,34.00
2019-04-25T10:58:37.758Z,34.50
2019-04-25T11:01:09.572Z,34.70
2019-04-25T11:03:42.685Z,35.00
2019-04-25T11:06:16.588Z,35.20
2019-04-25T11:08:47.996Z,35.60
2019-04-25T11:11:19.622Z,35.80
2019-04-25T11:13:50.772Z,36.00
2019-04-25T11:16:24.078Z,36.30
2019-04-25T11:18:55.438Z,36.40
2019-04-25T11:21:26.834Z,36.60
2019-04-25T11:23:58.244Z,36.90
2019-04-25T11:26:30.497Z,36.90
2019-04-25T11:29:01.972Z,36.90
2019-04-25T11:31:35.686Z,36.90
2019-04-25T11:34:07.998Z,37.50
2019-04-25T11:36:39.472Z,37.80
2019-04-25T11:39:15.035Z,37.90
2019-04-25T11:41:48.205Z,38.30
2019-04-25T11:44:19.200Z,38.50
2019-04-25T11:46:50.447Z,38.10
2019-04-25T11:49:23.743Z,37.90
2019-04-25T11:51:55.190Z,38.20
2019-04-25T11:54:26.498Z,38.40
2019-04-25T11:56:58.333Z,38.40
2019-04-25T11:59:29.830Z,38.30
2019-04-25T12:02:01.708Z,38.50
2019-04-25T12:04:33.360Z,38.50
2019-04-25T12:07:07.164Z,38.50
2019-04-25T12:09:38.001Z,38.60
2019-04-25T12:12:09.359Z,38.60
2019-04-25T12:14:41.025Z,38.80
2019-04-25T12:17:12.365Z,39.10
2019-04-25T12:19:43.778Z,39.20
2019-04-25T12:22:15.309Z,39.50
2019-04-25T12:24:46.768Z,40.00
2019-04-25T12:27:20.767Z,40.10
2019-04-25T12:29:53.144Z,40.00
2019-04-25T12:32:24.803Z,39.80
2019-04-25T12:34:56.087Z,39.50
2019-04-25T12:37:27.668Z,39.40
2019-04-25T12:39:59.170Z,39.10
2019-04-25T12:42:30.451Z,39.00
2019-04-25T12:45:04.071Z,39.00
2019-04-25T12:47:36.959Z,39.10
2019-04-25T12:50:09.063Z,38.90
2019-04-25T12:52:40.639Z,38.00
2019-04-25T12:55:13.972Z,38.30
2019-04-25T12:57:45.389Z,39.10
2019-04-25T13:00:18.208Z,39.70
2019-04-25T13:02:49.706Z,39.80
2019-04-25T13:05:21.047Z,40.10
2019-04-25T13:07:56.666Z,40.30
2019-04-25T13:10:25.398Z,40.50
2019-04-25T13:12:56.866Z,40.50
2019-04-25T13:15:28.597Z,40.80
2019-04-25T13:18:00.027Z,40.70
2019-04-25T13:20:31.838Z,40.80
2019-04-25T13:23:04.485Z,41.10
2019-04-25T13:25:36.297Z,41.60
2019-04-25T13:28:08.906Z,41.80
2019-04-25T13:30:41.801Z,42.00
2019-04-25T13:33:15.185Z,42.20
2019-04-25T13:35:47.809Z,43.00
2019-04-25T13:38:19.585Z,43.20
2019-04-25T13:40:51.090Z,44.00
2019-04-25T13:43:22.469Z,44.10
2019-04-25T13:45:54.048Z,44.60
2019-04-25T13:48:26.585Z,44.50
2019-04-25T13:50:58.156Z,45.00
2019-04-25T13:53:29.696Z,45.30
2019-04-25T13:56:01.012Z,46.40
2019-04-25T13:58:34.195Z,45.70
2019-04-25T14:01:12.865Z,45.70
2019-04-25T14:03:38.505Z,46.00
2019-04-25T14:06:10.006Z,46.40
2019-04-25T14:08:43.403Z,46.40
2019-04-25T14:11:14.724Z,46.50
2019-04-25T14:13:46.120Z,46.80
2019-04-25T14:16:18.619Z,46.90
2019-04-25T14:18:51.092Z,47.30
2019-04-25T14:21:24.648Z,47.10
2019-04-25T14:23:55.343Z,47.10
2019-04-25T14:26:27.409Z,47.30
2019-04-25T14:28:58.940Z,47.30
2019-04-25T14:31:41.328Z,47.70
2019-04-25T14:34:03.272Z,48.00
2019-04-25T14:36:35.703Z,47.10
2019-04-25T14:39:09.904Z,48.10
2019-04-25T14:41:44.289Z,48.10
2019-04-25T14:44:15.857Z,48.30
2019-04-25T14:46:51.971Z,48.10
2019-04-25T14:49:22.806Z,48.10
2019-04-25T14:51:54.288Z,48.30
2019-04-25T14:54:26.992Z,48.40
2019-04-25T14:56:59.487Z,48.50
2019-04-25T14:59:31.545Z,48.60
2019-04-25T15:02:02.968Z,49.00
2019-04-25T15:04:35.303Z,49.00
2019-04-25T15:07:06.818Z,49.30
2019-04-25T15:09:38.257Z,48.90
2019-04-25T15:12:09.811Z,48.90
2019-04-25T15:14:41.251Z,48.90
2019-04-25T15:17:12.982Z,48.60
2019-04-25T15:19:44.319Z,49.20
2019-04-25T15:22:17.443Z,49.30
2019-04-25T15:24:48.465Z,49.40
2019-04-25T15:27:19.988Z,49.60
2019-04-25T15:29:51.829Z,49.70
2019-04-25T15:32:25.089Z,49.80
2019-04-25T15:34:58.186Z,49.70
2019-04-25T15:37:30.714Z,49.70
2019-04-25T15:40:03.298Z,50.00
2019-04-25T15:42:36.696Z,50.80
2019-04-25T15:45:10.192Z,50.00
2019-04-25T15:47:41.767Z,50.30
2019-04-25T15:50:13.411Z,50.30
2019-04-25T15:52:45.008Z,50.20
2019-04-25T15:55:16.472Z,50.10
2019-04-25T15:57:47.919Z,50.20
2019-04-25T16:00:21.108Z,50.40
2019-04-25T16:02:52.392Z,50.40
2019-04-25T16:05:23.896Z,50.50
2019-04-25T16:07:55.298Z,50.80
2019-04-25T16:10:29.891Z,50.50
2019-04-25T16:13:01.310Z,50.70
2019-04-25T16:15:33.956Z,50.40
2019-04-25T16:18:06.445Z,50.40
2019-04-25T16:20:37.754Z,50.70
2019-04-25T16:23:09.508Z,50.50
2019-04-25T16:25:42.150Z,50.60
2019-04-25T16:28:13.624Z,50.80
2019-04-25T16:30:49.536Z,50.60
2019-04-25T16:33:21.855Z,50.70
2019-04-25T16:35:54.185Z,50.70
2019-04-25T16:38:25.934Z,50.80
2019-04-25T16:40:57.287Z,50.80
2019-04-25T16:43:33.711Z,51.00
2019-04-25T16:46:07.317Z,50.90
2019-04-25T16:48:39.172Z,50.90
2019-04-25T16:51:10.770Z,51.00
2019-04-25T16:53:43.193Z,50.90
2019-04-25T16:56:14.679Z,50.70
2019-04-25T16:58:46.184Z,51.30
2019-04-25T17:01:21.521Z,51.50
2019-04-25T17:03:56.875Z,51.50
2019-04-25T17:06:41.591Z,51.60
2019-04-25T17:09:13.201Z,51.70
2019-04-25T17:11:44.649Z,51.80
2019-04-25T17:14:17.405Z,52.10
2019-04-25T17:16:50.244Z,52.30
2019-04-25T17:19:23.041Z,52.30
2019-04-25T17:21:55.069Z,52.40
2019-04-25T17:24:26.593Z,52.50
2019-04-25T17:26:58.047Z,52.80
2019-04-25T17:29:30.352Z,52.50
2019-04-25T17:32:03.745Z,53.20
2019-04-25T17:34:38.939Z,52.90
2019-04-25T17:37:10.401Z,53.50
2019-04-25T17:39:42.842Z,52.60
2019-04-25T17:42:17.569Z,53.60
2019-04-25T17:44:48.953Z,53.90
2019-04-25T17:47:20.568Z,53.30
2019-04-25T17:49:54.790Z,53.40
2019-04-25T17:52:38.550Z,53.50
2019-04-25T17:55:10.609Z,53.30
2019-04-25T17:57:44.941Z,53.20
2019-04-25T18:00:18.971Z,53.70
2019-04-25T18:02:58.640Z,53.30
2019-04-25T18:05:23.506Z,53.40
2019-04-25T18:07:54.877Z,53.20
2019-04-25T18:10:26.121Z,53.10
2019-04-25T18:12:57.551Z,53.10
2019-04-25T18:15:30.053Z,52.70
2019-04-25T18:18:02.706Z,52.30
2019-04-25T18:20:35.293Z,52.40
2019-04-25T18:23:07.969Z,51.90
2019-04-25T18:25:41.136Z,51.30
2019-04-25T18:28:12.277Z,50.70
2019-04-25T18:30:45.462Z,50.30
2019-04-25T18:33:18.045Z,50.10
2019-04-25T18:35:50.673Z,49.60
2019-04-25T18:38:23.058Z,49.60
2019-04-25T18:40:55.604Z,49.60
2019-04-25T18:43:28.133Z,49.70
2019-04-25T18:46:00.766Z,49.70
2019-04-25T18:48:32.095Z,49.90
2019-04-25T18:51:03.552Z,50.00
2019-04-25T18:53:37.723Z,49.80
2019-04-25T18:56:10.088Z,50.30
2019-04-25T18:58:42.676Z,50.20
2019-04-25T19:01:15.381Z,50.50
2019-04-25T19:03:48.001Z,50.80
2019-04-25T19:06:20.572Z,50.70
2019-04-25T19:08:53.243Z,51.10
2019-04-25T19:11:24.743Z,51.90
2019-04-25T19:13:56.331Z,51.30
2019-04-25T19:16:27.759Z,51.00
2019-04-25T19:18:59.318Z,51.00
2019-04-25T19:21:33.173Z,50.50
2019-04-25T19:24:03.638Z,50.40
2019-04-25T19:26:34.999Z,50.40
2019-04-25T19:29:06.381Z,50.40
2019-04-25T19:31:37.830Z,50.80
2019-04-25T19:34:09.306Z,50.80
2019-04-25T19:36:41.429Z,50.40
2019-04-25T19:39:13.055Z,49.90
2019-04-25T19:41:45.582Z,49.20
2019-04-25T19:44:17.970Z,49.10
2019-04-25T19:46:51.260Z,48.90
2019-04-25T19:49:22.869Z,48.80
2019-04-25T19:51:54.313Z,48.70
2019-04-25T19:54:25.502Z,48.70
2019-04-25T19:56:56.962Z,48.50
2019-04-25T19:59:28.434Z,48.70
2019-04-25T20:02:00.822Z,48.90
2019-04-25T20:04:33.656Z,48.90
2019-04-25T20:07:06.273Z,48.70
2019-04-25T20:09:39.095Z,48.70
2019-04-25T20:12:10.881Z,48.70
2019-04-25T20:14:43.927Z,48.80
2019-04-25T20:17:14.766Z,48.70
2019-04-25T20:19:45.927Z,48.70
2019-04-25T20:22:17.659Z,48.70
2019-04-25T20:24:49.104Z,49.00
2019-04-25T20:27:20.545Z,49.10
2019-04-25T20:29:52.623Z,49.40
2019-04-25T20:32:23.998Z,49.70
2019-04-25T20:34:55.499Z,50.00
2019-04-25T20:37:26.959Z,49.70
2019-04-25T20:39:58.386Z,50.00
2019-04-25T20:42:29.721Z,50.10
2019-04-25T20:45:01.137Z,50.50
2019-04-25T20:47:32.548Z,50.50
2019-04-25T20:50:03.861Z,50.70
2019-04-25T20:52:37.983Z,50.90
2019-04-25T20:55:09.395Z,50.90
2019-04-25T20:57:40.503Z,51.10
2019-04-25T21:00:12.478Z,51.10
2019-04-25T21:02:43.932Z,50.70
2019-04-25T21:05:15.287Z,50.50
2019-04-25T21:07:46.513Z,50.50
2019-04-25T21:10:17.947Z,50.90
2019-04-25T21:12:50.221Z,51.40
2019-04-25T21:15:22.963Z,51.40
2019-04-25T21:17:56.256Z,51.50
2019-04-25T21:20:27.801Z,51.60
2019-04-25T21:22:58.911Z,52.00
2019-04-25T21:25:30.470Z,52.10
2019-04-25T21:28:01.848Z,52.20
2019-04-25T21:30:33.270Z,52.50
2019-04-25T21:33:04.907Z,52.50
2019-04-25T21:35:36.541Z,52.60
2019-04-25T21:38:07.974Z,53.20
2019-04-25T21:40:40.378Z,53.70
2019-04-25T21:43:13.162Z,54.10
2019-04-25T21:45:44.922Z,54.40
2019-04-25T21:48:18.691Z,54.80
2019-04-25T21:50:51.364Z,55.50
2019-04-25T21:53:22.704Z,56.10
2019-04-25T21:55:55.249Z,56.60
2019-04-25T21:58:27.142Z,56.80
2019-04-25T22:00:58.527Z,57.50
2019-04-25T22:03:30.019Z,57.50
2019-04-25T22:06:02.882Z,58.10
2019-04-25T22:08:34.748Z,58.10
2019-04-25T22:11:06.101Z,58.40
2019-04-25T22:13:37.949Z,58.90
2019-04-25T22:16:09.717Z,58.80
2019-04-25T22:18:41.570Z,59.10
2019-04-25T22:21:13.445Z,58.80
2019-04-25T22:23:45.421Z,58.70
2019-04-25T22:26:17.073Z,58.60
2019-04-25T22:28:53.649Z,58.20
2019-04-25T22:31:26.326Z,57.90
2019-04-25T22:33:59.587Z,57.80
2019-04-25T22:36:31.362Z,57.70
2019-04-25T22:39:04.381Z,58.00
2019-04-25T22:41:35.852Z,57.80
2019-04-25T22:44:09.020Z,58.20
2019-04-25T22:46:40.725Z,58.10
2019-04-25T22:49:12.320Z,58.20
2019-04-25T22:51:43.688Z,58.50
2019-04-25T22:54:15.435Z,58.60
2019-04-25T22:56:46.793Z,58.50
2019-04-25T22:59:18.485Z,58.60
2019-04-25T23:01:51.103Z,58.50
2019-04-25T23:04:23.603Z,58.60
2019-04-25T23:06:55.496Z,58.30
2019-04-25T23:09:27.737Z,58.00
2019-04-25T23:12:02.088Z,58.00
2019-04-25T23:14:33.965Z,57.80
2019-04-25T23:17:05.432Z,57.70
2019-04-25T23:19:36.898Z,57.80
2019-04-25T23:22:11.596Z,57.50
2019-04-25T23:24:46.253Z,57.10
2019-04-25T23:27:18.953Z,56.80
2019-04-25T23:29:50.491Z,56.70
2019-04-25T23:32:55.975Z,56.70
2019-04-25T23:35:31.806Z,56.50
2019-04-25T23:38:28.931Z,55.90
2019-04-25T23:41:00.201Z,55.80
2019-04-25T23:43:32.746Z,55.90
2019-04-25T23:46:07.324Z,56.30
2019-04-25T23:48:38.833Z,55.90
2019-04-25T23:51:11.334Z,55.30
2019-04-25T23:53:43.220Z,55.00
2019-04-25T23:56:15.232Z,55.10
2019-04-25T23:58:46.974Z,55.20
